SHF280 EGXC-EGXC

Flight info

Callsign SHF280
Flight time 0h 56m
Altitude 5000
Route HOLBEACH RANGE
Aircraft H47/L-V/N

Departure

Time 2026-05-07 19:43
Airport RAF Coningsby (EGXC)

Arrival

Time 2026-05-07 20:39
Airport RAF Coningsby (EGXC)
Time Latitude Longitude Altitude Speed Heading
2026-05-07 19:29 53.09064 -0.16463 23 ft 0 kts 27°
2026-05-07 19:41 53.09120 -0.16526 100 ft 31 kts 330°
2026-05-07 19:41 53.09321 -0.16471 169 ft 36 kts 66°
2026-05-07 19:41 53.09427 -0.15934 277 ft 81 kts 66°
2026-05-07 19:41 53.09645 -0.14913 417 ft 102 kts 76°
2026-05-07 19:42 53.09629 -0.13713 467 ft 112 kts 115°
2026-05-07 19:42 53.09193 -0.12611 471 ft 119 kts 125°
2026-05-07 19:42 53.08760 -0.11418 457 ft 118 kts 123°
2026-05-07 19:42 53.08365 -0.10273 597 ft 110 kts 121°
2026-05-07 19:43 53.07972 -0.09205 805 ft 109 kts 122°
2026-05-07 19:43 53.07578 -0.08083 819 ft 115 kts 122°
2026-05-07 19:43 53.07136 -0.06931 762 ft 118 kts 125°
2026-05-07 19:43 53.06552 -0.05967 682 ft 122 kts 141°
2026-05-07 19:44 53.05852 -0.05144 720 ft 123 kts 143°
2026-05-07 19:44 53.05124 -0.04405 741 ft 126 kts 145°
2026-05-07 19:44 53.04341 -0.03717 754 ft 127 kts 149°
2026-05-07 19:44 53.03603 -0.02941 763 ft 127 kts 143°
2026-05-07 19:45 53.02913 -0.02013 674 ft 124 kts 142°
2026-05-07 19:45 53.02279 -0.01104 754 ft 118 kts 140°
2026-05-07 19:45 53.01639 -0.00286 953 ft 115 kts 144°
2026-05-07 19:45 53.00937 0.00413 1101 ft 119 kts 149°
2026-05-07 19:46 53.00183 0.01049 1093 ft 123 kts 153°
2026-05-07 19:46 52.99402 0.01609 1041 ft 126 kts 156°
2026-05-07 19:46 52.98600 0.02110 1010 ft 120 kts 157°
2026-05-07 19:46 52.97807 0.02524 1105 ft 120 kts 158°
2026-05-07 19:47 52.96973 0.02859 1137 ft 126 kts 154°
2026-05-07 19:47 52.96090 0.03152 992 ft 133 kts 159°
2026-05-07 19:47 52.95189 0.03393 811 ft 131 kts 154°
2026-05-07 19:47 52.94292 0.03663 688 ft 131 kts 157°
2026-05-07 19:48 52.93435 0.04104 594 ft 128 kts 148°
2026-05-07 19:48 52.92659 0.04700 649 ft 119 kts 150°
2026-05-07 19:48 52.91954 0.05444 485 ft 123 kts 143°
2026-05-07 19:48 52.91276 0.06328 517 ft 120 kts 142°
2026-05-07 19:49 52.90717 0.07348 458 ft 118 kts 122°
2026-05-07 19:49 52.90298 0.08533 464 ft 122 kts 122°
2026-05-07 19:49 52.89840 0.09795 327 ft 133 kts 122°
2026-05-07 19:49 52.89397 0.11130 169 ft 126 kts 117°
2026-05-07 19:50 52.89050 0.12451 214 ft 129 kts 118°
2026-05-07 19:50 52.88559 0.13684 117 ft 128 kts 128°
2026-05-07 19:50 52.87961 0.14758 84 ft 128 kts 136°
2026-05-07 19:50 52.87228 0.15540 93 ft 125 kts 149°
2026-05-07 19:51 52.86492 0.16329 39 ft 115 kts 147°
2026-05-07 19:51 52.85917 0.16866 96 ft 77 kts 152°
2026-05-07 19:51 52.85601 0.17137 92 ft 26 kts 147°
2026-05-07 19:51 52.85564 0.17054 80 ft 9 kts 218°
2026-05-07 19:52 52.85574 0.17013 37 ft 2 kts 158°
2026-05-07 19:52 52.85572 0.17006 13 ft 0 kts 157°
2026-05-07 19:52 52.85590 0.17015 61 ft 24 kts 61°
2026-05-07 19:52 52.85957 0.17450 164 ft 56 kts 184°
2026-05-07 19:53 52.85932 0.17632 615 ft 45 kts 272°
2026-05-07 19:53 52.85687 0.17598 598 ft 9 kts 273°
2026-05-07 19:53 52.85908 0.17279 656 ft 80 kts 274°
2026-05-07 19:53 52.86237 0.16655 1192 ft 65 kts 73°
2026-05-07 19:54 52.86695 0.16979 140 ft 88 kts 25°
2026-05-07 19:54 52.86883 0.17146 211 ft 17 kts 125°
2026-05-07 19:54 52.86802 0.17260 171 ft 8 kts 173°
2026-05-07 19:54 52.86742 0.17265 84 ft 8 kts 180°
2026-05-07 19:55 52.86682 0.17005 183 ft 47 kts 346°
2026-05-07 19:55 52.86821 0.16972 159 ft 7 kts 39°
2026-05-07 19:55 52.86834 0.16992 182 ft 1 kts 39°
2026-05-07 19:55 52.86845 0.17004 212 ft 3 kts 57°
2026-05-07 19:56 52.86855 0.17037 242 ft 3 kts 66°
2026-05-07 19:56 52.86858 0.17072 273 ft 4 kts 100°
2026-05-07 19:56 52.86846 0.17115 315 ft 4 kts 129°
2026-05-07 19:56 52.86830 0.17145 267 ft 3 kts 114°
2026-05-07 19:57 52.86823 0.17177 197 ft 3 kts 109°
2026-05-07 19:57 52.86813 0.17205 133 ft 4 kts 155°
2026-05-07 19:57 52.86782 0.17219 141 ft 5 kts 154°
2026-05-07 19:57 52.86732 0.17237 167 ft 11 kts 181°
2026-05-07 19:58 52.86667 0.17177 203 ft 22 kts 208°
2026-05-07 19:58 52.86339 0.17257 170 ft 58 kts 130°
2026-05-07 19:58 52.86267 0.17447 199 ft 8 kts 97°
2026-05-07 19:58 52.86258 0.17550 146 ft 8 kts 97°
2026-05-07 19:59 52.86193 0.17656 200 ft 18 kts 182°
2026-05-07 19:59 52.86147 0.17646 94 ft 3 kts 202°
2026-05-07 19:59 52.86127 0.17640 29 ft 1 kts 257°
2026-05-07 19:59 52.86131 0.17636 28 ft 0 kts 248°
2026-05-07 20:00 52.86147 0.17584 52 ft 7 kts 64°
2026-05-07 20:00 52.86135 0.17642 26 ft 5 kts 248°
2026-05-07 20:00 52.86143 0.17585 46 ft 5 kts 94°
2026-05-07 20:00 52.86135 0.17640 49 ft 10 kts 254°
2026-05-07 20:01 52.85862 0.17538 85 ft 104 kts 140°
2026-05-07 20:01 52.85669 0.17995 207 ft 15 kts 334°
2026-05-07 20:01 52.85711 0.17983 60 ft 4 kts 335°
2026-05-07 20:01 52.85734 0.17986 14 ft 12 kts 54°
2026-05-07 20:02 52.85795 0.18109 9 ft 8 kts 43°
2026-05-07 20:02 52.85840 0.18084 20 ft 27 kts 319°
2026-05-07 20:02 52.86088 0.17714 41 ft 27 kts 313°
2026-05-07 20:02 52.86128 0.17635 26 ft 2 kts 269°
2026-05-07 20:03 52.86128 0.17631 23 ft 0 kts 270°
2026-05-07 20:07 52.86131 0.17610 61 ft 20 kts 319°
2026-05-07 20:07 52.86577 0.17403 114 ft 113 kts 349°
2026-05-07 20:07 52.87200 0.16805 361 ft 48 kts 110°
2026-05-07 20:08 52.87325 0.16813 359 ft 77 kts 38°
2026-05-07 20:08 52.87591 0.17027 192 ft 116 kts 37°
2026-05-07 20:08 52.87864 0.17398 166 ft 39 kts 204°
2026-05-07 20:09 52.87828 0.17447 213 ft 28 kts 204°
2026-05-07 20:09 52.87766 0.17424 223 ft 49 kts 203°
2026-05-07 20:10 52.87422 0.17297 217 ft 91 kts 188°
2026-05-07 20:10 52.87098 0.17179 107 ft 99 kts 187°
2026-05-07 20:10 52.86834 0.17105 101 ft 22 kts 180°
2026-05-07 20:11 52.86780 0.17107 56 ft 5 kts 162°
2026-05-07 20:11 52.86772 0.17106 46 ft 6 kts 162°
2026-05-07 20:11 52.86742 0.17119 41 ft 2 kts 162°
2026-05-07 20:11 52.86728 0.17123 40 ft 2 kts 162°
2026-05-07 20:12 52.86715 0.17130 44 ft 2 kts 162°
2026-05-07 20:12 52.86701 0.17137 41 ft 2 kts 162°
2026-05-07 20:12 52.86685 0.17142 31 ft 3 kts 171°
2026-05-07 20:12 52.86668 0.17148 27 ft 2 kts 166°
2026-05-07 20:13 52.86651 0.17155 31 ft 3 kts 131°
2026-05-07 20:13 52.86643 0.17176 33 ft 2 kts 119°
2026-05-07 20:13 52.86635 0.17201 28 ft 2 kts 118°
2026-05-07 20:13 52.86627 0.17225 29 ft 2 kts 118°
2026-05-07 20:14 52.86623 0.17164 26 ft 21 kts 270°
2026-05-07 20:14 52.86581 0.16767 45 ft 52 kts 211°
2026-05-07 20:14 52.86461 0.16612 46 ft 16 kts 22°
2026-05-07 20:14 52.86657 0.16521 125 ft 44 kts 333°
2026-05-07 20:15 52.86971 0.16169 163 ft 54 kts 334°
2026-05-07 20:15 52.86911 0.16327 344 ft 72 kts 119°
2026-05-07 20:15 52.86801 0.16915 148 ft 25 kts 111°
2026-05-07 20:15 52.86783 0.17064 89 ft 4 kts 71°
2026-05-07 20:16 52.86786 0.17056 64 ft 39 kts 352°
2026-05-07 20:16 52.86715 0.16376 277 ft 26 kts 15°
2026-05-07 20:16 52.86893 0.16614 164 ft 70 kts 101°
2026-05-07 20:16 52.86721 0.17351 327 ft 95 kts 168°
2026-05-07 20:17 52.86485 0.17059 354 ft 32 kts 295°
2026-05-07 20:17 52.86634 0.16785 269 ft 43 kts 339°
2026-05-07 20:17 52.86960 0.16896 323 ft 54 kts 83°
2026-05-07 20:17 52.86988 0.17400 487 ft 52 kts 195°
2026-05-07 20:18 52.86705 0.17519 438 ft 12 kts 172°
2026-05-07 20:18 52.86679 0.17518 372 ft 4 kts 172°
2026-05-07 20:18 52.86665 0.17512 326 ft 2 kts 172°
2026-05-07 20:18 52.86651 0.17502 296 ft 2 kts 173°
2026-05-07 20:19 52.86639 0.17509 233 ft 2 kts 173°
2026-05-07 20:19 52.86587 0.17202 107 ft 58 kts 269°
2026-05-07 20:19 52.86773 0.16745 259 ft 31 kts 50°
2026-05-07 20:19 52.86893 0.16825 197 ft 18 kts 55°
2026-05-07 20:20 52.86923 0.17105 122 ft 34 kts 79°
2026-05-07 20:20 52.86851 0.17345 138 ft 40 kts 173°
2026-05-07 20:20 52.86607 0.17035 196 ft 63 kts 317°
2026-05-07 20:20 52.86875 0.16873 152 ft 57 kts 74°
2026-05-07 20:21 52.86812 0.17332 269 ft 34 kts 213°
2026-05-07 20:21 52.86614 0.17156 282 ft 64 kts 255°
2026-05-07 20:21 52.86889 0.16695 266 ft 79 kts 52°
2026-05-07 20:21 52.87032 0.17232 293 ft 65 kts 181°
2026-05-07 20:22 52.86648 0.17251 198 ft 51 kts 311°
2026-05-07 20:22 52.86748 0.16741 153 ft 34 kts 39°
2026-05-07 20:22 52.86920 0.16987 153 ft 52 kts 117°
2026-05-07 20:22 52.86803 0.17357 101 ft 40 kts 205°
2026-05-07 20:23 52.86646 0.17052 44 ft 38 kts 317°
2026-05-07 20:23 52.86704 0.16910 48 ft 30 kts 39°
2026-05-07 20:23 52.86838 0.17014 117 ft 28 kts 55°
2026-05-07 20:23 52.86643 0.17462 108 ft 114 kts 152°
2026-05-07 20:24 52.85880 0.18093 363 ft 30 kts 181°
2026-05-07 20:24 52.86159 0.17828 55 ft 107 kts 329°
2026-05-07 20:24 52.86725 0.17222 64 ft 74 kts 336°
2026-05-07 20:24 52.86915 0.17036 59 ft 31 kts 196°
2026-05-07 20:25 52.86705 0.16850 84 ft 53 kts 108°
2026-05-07 20:25 52.86790 0.17202 123 ft 87 kts 35°
2026-05-07 20:25 52.87190 0.17609 423 ft 22 kts 236°
2026-05-07 20:25 52.86896 0.16831 115 ft 100 kts 155°
2026-05-07 20:26 52.86681 0.16774 354 ft 3 kts 349°
2026-05-07 20:26 52.86596 0.16728 302 ft 67 kts 198°
2026-05-07 20:26 52.86402 0.17084 127 ft 92 kts 25°
2026-05-07 20:26 52.86870 0.17221 12 ft 0 kts 281°
2026-05-07 20:27 52.86340 0.17535 58 ft 149 kts 178°
2026-05-07 20:27 52.85869 0.17513 157 ft 91 kts 322°
2026-05-07 20:27 52.86642 0.16738 183 ft 84 kts 88°
2026-05-07 20:28 52.86741 0.16958 57 ft 3 kts 167°
2026-05-07 20:28 52.86659 0.17011 45 ft 66 kts 146°
2026-05-07 20:28 52.86609 0.17104 141 ft 103 kts 324°
2026-05-07 20:28 52.87518 0.16059 179 ft 183 kts 321°
2026-05-07 20:29 52.87920 0.15833 657 ft 28 kts 104°
2026-05-07 20:29 52.88011 0.15791 1380 ft 5 kts 107°
2026-05-07 20:29 52.88013 0.15797 1471 ft 4 kts 104°
2026-05-07 20:29 52.88012 0.15805 1579 ft 4 kts 112°
2026-05-07 20:30 52.87778 0.15955 2003 ft 87 kts 155°
2026-05-07 20:30 52.87117 0.16587 137 ft 166 kts 141°
2026-05-07 20:30 52.86591 0.17256 417 ft 50 kts 327°
2026-05-07 20:30 52.86929 0.16224 997 ft 140 kts 308°
2026-05-07 20:31 52.87512 0.14786 2091 ft 160 kts 306°
2026-05-07 20:31 52.88210 0.13232 2824 ft 173 kts 307°
2026-05-07 20:31 52.88960 0.11629 3305 ft 183 kts 306°
2026-05-07 20:31 52.89741 0.09883 3465 ft 194 kts 303°
2026-05-07 20:32 52.90518 0.07993 3386 ft 197 kts 301°
2026-05-07 20:32 52.91252 0.06205 3280 ft 180 kts 303°
2026-05-07 20:32 52.91958 0.04531 3219 ft 173 kts 301°
2026-05-07 20:32 52.92543 0.02837 3289 ft 169 kts 297°
2026-05-07 20:33 52.93151 0.01122 3048 ft 178 kts 298°
2026-05-07 20:33 52.93738 -0.00625 3053 ft 166 kts 296°
2026-05-07 20:33 52.94240 -0.02324 3192 ft 163 kts 292°
2026-05-07 20:33 52.94657 -0.04051 3326 ft 162 kts 289°
2026-05-07 20:34 52.95058 -0.05824 3225 ft 171 kts 287°
2026-05-07 20:34 52.95459 -0.07716 3025 ft 175 kts 288°
2026-05-07 20:34 52.95878 -0.09613 2885 ft 174 kts 287°
2026-05-07 20:34 52.96301 -0.11521 2743 ft 178 kts 288°
2026-05-07 20:35 52.96756 -0.13480 2411 ft 182 kts 288°
2026-05-07 20:35 52.97203 -0.15305 2503 ft 169 kts 301°
2026-05-07 20:35 52.97962 -0.16873 2359 ft 183 kts 322°
2026-05-07 20:35 52.99029 -0.17980 2288 ft 173 kts 332°
2026-05-07 20:36 53.00026 -0.18913 2611 ft 164 kts 331°
2026-05-07 20:36 53.01083 -0.19845 2522 ft 179 kts 330°
2026-05-07 20:36 53.02188 -0.20910 2293 ft 184 kts 329°
2026-05-07 20:36 53.03281 -0.21930 2335 ft 175 kts 331°
2026-05-07 20:37 53.04327 -0.22879 2429 ft 170 kts 330°
2026-05-07 20:37 53.05392 -0.23747 1949 ft 172 kts 340°
2026-05-07 20:37 53.06574 -0.24158 1367 ft 174 kts 359°
2026-05-07 20:37 53.07688 -0.23804 1129 ft 157 kts 55°
2026-05-07 20:38 53.08172 -0.22416 741 ft 155 kts 89°
2026-05-07 20:38 53.08472 -0.20819 568 ft 140 kts 69°
2026-05-07 20:38 53.08760 -0.19362 510 ft 127 kts 76°
2026-05-07 20:38 53.08912 -0.18544 280 ft 118 kts 77°
2026-05-07 20:39 53.09145 -0.17415 262 ft 102 kts 75°
2026-05-07 20:39 53.09269 -0.16670 198 ft 33 kts 179°
2026-05-07 20:39 53.09020 -0.16487 106 ft 9 kts 42°
2026-05-07 20:39 53.09061 -0.16467 25 ft 0 kts 26°